sensor_id;sensor_type;location;lat;lon;timestamp;pressure;altitude;pressure_sealevel;temperature;humidity
3748;BME280;1889;50.058;8.688;2022-12-13T00:01:55;99873.30;;;2.63;54.11
3748;BME280;1889;50.058;8.688;2022-12-13T00:04:25;99877.33;;;2.79;53.77
3748;BME280;1889;50.058;8.688;2022-12-13T00:06:54;99865.95;;;2.64;54.19
3748;BME280;1889;50.058;8.688;2022-12-13T00:09:23;99866.47;;;2.76;53.64
3748;BME280;1889;50.058;8.688;2022-12-13T00:11:52;99866.84;;;2.66;53.91
3748;BME280;1889;50.058;8.688;2022-12-13T00:14:21;99871.33;;;2.83;53.46
3748;BME280;1889;50.058;8.688;2022-12-13T00:16:50;99869.83;;;2.63;54.06
3748;BME280;1889;50.058;8.688;2022-12-13T00:19:19;99863.34;;;2.64;53.96
3748;BME280;1889;50.058;8.688;2022-12-13T00:21:49;99867.11;;;2.52;54.43
3748;BME280;1889;50.058;8.688;2022-12-13T00:24:18;99868.50;;;2.61;54.04
3748;BME280;1889;50.058;8.688;2022-12-13T00:26:47;99863.83;;;2.70;53.63
3748;BME280;1889;50.058;8.688;2022-12-13T00:29:16;99867.20;;;2.58;54.02
3748;BME280;1889;50.058;8.688;2022-12-13T00:31:45;99858.20;;;2.67;53.60
3748;BME280;1889;50.058;8.688;2022-12-13T00:34:14;99864.15;;;2.57;53.92
3748;BME280;1889;50.058;8.688;2022-12-13T00:36:44;99861.01;;;2.47;54.11
3748;BME280;1889;50.058;8.688;2022-12-13T00:39:13;99854.86;;;2.39;54.41
3748;BME280;1889;50.058;8.688;2022-12-13T00:41:45;99855.91;;;2.56;53.78
3748;BME280;1889;50.058;8.688;2022-12-13T00:44:14;99856.39;;;2.62;53.53
3748;BME280;1889;50.058;8.688;2022-12-13T00:46:43;99856.31;;;2.54;53.74
3748;BME280;1889;50.058;8.688;2022-12-13T00:49:13;99853.01;;;2.71;53.11
3748;BME280;1889;50.058;8.688;2022-12-13T00:51:42;99848.93;;;2.52;53.58
3748;BME280;1889;50.058;8.688;2022-12-13T00:54:11;99846.07;;;2.69;53.00
3748;BME280;1889;50.058;8.688;2022-12-13T00:56:40;99853.00;;;2.67;52.95
3748;BME280;1889;50.058;8.688;2022-12-13T00:59:12;99855.95;;;2.59;53.06
3748;BME280;1889;50.058;8.688;2022-12-13T01:01:42;99853.97;;;2.37;53.93
3748;BME280;1889;50.058;8.688;2022-12-13T01:04:11;99859.16;;;2.37;54.04
3748;BME280;1889;50.058;8.688;2022-12-13T01:06:43;99855.59;;;2.27;54.33
3748;BME280;1889;50.058;8.688;2022-12-13T01:09:23;99843.22;;;2.42;53.83
3748;BME280;1889;50.058;8.688;2022-12-13T01:11:48;99844.09;;;2.44;53.66
3748;BME280;1889;50.058;8.688;2022-12-13T01:14:18;99840.83;;;2.22;54.29
3748;BME280;1889;50.058;8.688;2022-12-13T01:16:47;99837.08;;;2.34;53.86
3748;BME280;1889;50.058;8.688;2022-12-13T01:19:16;99838.16;;;2.56;53.00
3748;BME280;1889;50.058;8.688;2022-12-13T01:21:45;99839.83;;;2.49;52.96
3748;BME280;1889;50.058;8.688;2022-12-13T01:24:15;99835.81;;;2.39;53.14
3748;BME280;1889;50.058;8.688;2022-12-13T01:26:46;99841.45;;;2.40;52.96
3748;BME280;1889;50.058;8.688;2022-12-13T01:29:14;99848.80;;;2.39;53.02
3748;BME280;1889;50.058;8.688;2022-12-13T01:31:44;99857.75;;;2.25;53.58
3748;BME280;1889;50.058;8.688;2022-12-13T01:34:14;99859.05;;;2.25;53.53
3748;BME280;1889;50.058;8.688;2022-12-13T01:36:44;99856.85;;;2.23;53.38
3748;BME280;1889;50.058;8.688;2022-12-13T01:39:16;99854.25;;;2.23;53.49
3748;BME280;1889;50.058;8.688;2022-12-13T01:41:49;99858.17;;;2.24;53.33
3748;BME280;1889;50.058;8.688;2022-12-13T01:47:42;99841.44;;;2.38;52.72
3748;BME280;1889;50.058;8.688;2022-12-13T01:50:28;99844.19;;;2.13;53.40
3748;BME280;1889;50.058;8.688;2022-12-13T01:52:54;99838.88;;;2.01;53.72
3748;BME280;1889;50.058;8.688;2022-12-13T01:55:26;99845.39;;;2.03;53.59
3748;BME280;1889;50.058;8.688;2022-12-13T01:57:58;99842.08;;;1.82;54.13
3748;BME280;1889;50.058;8.688;2022-12-13T02:00:28;99839.32;;;2.02;53.52
3748;BME280;1889;50.058;8.688;2022-12-13T02:02:58;99835.02;;;2.06;53.22
3748;BME280;1889;50.058;8.688;2022-12-13T02:05:49;99846.36;;;2.14;52.90
3748;BME280;1889;50.058;8.688;2022-12-13T02:08:17;99843.09;;;1.93;53.58
3748;BME280;1889;50.058;8.688;2022-12-13T02:10:48;99843.88;;;1.87;53.61
3748;BME280;1889;50.058;8.688;2022-12-13T02:13:16;99842.06;;;1.80;53.79
3748;BME280;1889;50.058;8.688;2022-12-13T02:15:57;99837.23;;;2.09;52.87
3748;BME280;1889;50.058;8.688;2022-12-13T02:21:05;99833.64;;;1.98;53.10
3748;BME280;1889;50.058;8.688;2022-12-13T02:24:09;99832.81;;;2.01;53.03
3748;BME280;1889;50.058;8.688;2022-12-13T02:26:43;99833.08;;;1.88;53.48
3748;BME280;1889;50.058;8.688;2022-12-13T02:32:26;99834.52;;;1.34;54.68
3748;BME280;1889;50.058;8.688;2022-12-13T02:35:16;99833.11;;;1.57;54.19
3748;BME280;1889;50.058;8.688;2022-12-13T02:37:36;99834.41;;;1.57;54.21
3748;BME280;1889;50.058;8.688;2022-12-13T02:40:06;99831.36;;;1.56;54.34
3748;BME280;1889;50.058;8.688;2022-12-13T02:42:42;99832.88;;;1.73;53.90
3748;BME280;1889;50.058;8.688;2022-12-13T02:45:22;99835.78;;;1.63;54.11
3748;BME280;1889;50.058;8.688;2022-12-13T02:47:42;99828.13;;;1.72;53.84
3748;BME280;1889;50.058;8.688;2022-12-13T02:50:13;99830.55;;;1.59;54.25
3748;BME280;1889;50.058;8.688;2022-12-13T02:52:43;99823.71;;;1.65;54.31
3748;BME280;1889;50.058;8.688;2022-12-13T02:55:14;99822.02;;;1.67;54.15
3748;BME280;1889;50.058;8.688;2022-12-13T02:57:45;99817.67;;;1.66;54.12
3748;BME280;1889;50.058;8.688;2022-12-13T03:00:18;99820.09;;;1.52;54.29
3748;BME280;1889;50.058;8.688;2022-12-13T03:05:45;99814.49;;;1.53;54.43
3748;BME280;1889;50.058;8.688;2022-12-13T03:11:07;99815.61;;;1.73;53.66
3748;BME280;1889;50.058;8.688;2022-12-13T03:13:53;99811.59;;;1.64;54.05
3748;BME280;1889;50.058;8.688;2022-12-13T03:16:42;99815.11;;;1.68;53.86
3748;BME280;1889;50.058;8.688;2022-12-13T03:19:12;99809.42;;;1.64;54.17
3748;BME280;1889;50.058;8.688;2022-12-13T03:21:44;99808.48;;;1.57;54.36
3748;BME280;1889;50.058;8.688;2022-12-13T03:24:17;99806.50;;;1.72;53.89
3748;BME280;1889;50.058;8.688;2022-12-13T03:26:48;99803.94;;;1.73;53.58
3748;BME280;1889;50.058;8.688;2022-12-13T03:29:18;99808.44;;;1.86;52.92
3748;BME280;1889;50.058;8.688;2022-12-13T03:31:47;99802.86;;;1.91;52.46
3748;BME280;1889;50.058;8.688;2022-12-13T03:34:16;99795.64;;;1.66;53.31
3748;BME280;1889;50.058;8.688;2022-12-13T03:36:45;99797.22;;;1.53;53.73
3748;BME280;1889;50.058;8.688;2022-12-13T03:39:14;99796.69;;;1.48;53.90
3748;BME280;1889;50.058;8.688;2022-12-13T03:41:43;99805.72;;;1.43;54.07
3748;BME280;1889;50.058;8.688;2022-12-13T03:44:12;99799.33;;;1.51;53.92
3748;BME280;1889;50.058;8.688;2022-12-13T03:46:41;99795.61;;;1.32;54.28
3748;BME280;1889;50.058;8.688;2022-12-13T03:49:09;99795.77;;;1.43;54.14
3748;BME280;1889;50.058;8.688;2022-12-13T03:51:38;99793.70;;;1.50;53.95
3748;BME280;1889;50.058;8.688;2022-12-13T03:54:08;99794.06;;;1.46;54.18
3748;BME280;1889;50.058;8.688;2022-12-13T03:56:36;99791.38;;;1.39;54.34
3748;BME280;1889;50.058;8.688;2022-12-13T03:59:06;99793.59;;;1.42;54.41
3748;BME280;1889;50.058;8.688;2022-12-13T04:01:35;99793.66;;;1.45;54.37
3748;BME280;1889;50.058;8.688;2022-12-13T04:04:04;99788.91;;;1.48;54.45
3748;BME280;1889;50.058;8.688;2022-12-13T04:06:33;99793.80;;;1.58;54.32
3748;BME280;1889;50.058;8.688;2022-12-13T04:09:02;99794.13;;;1.49;54.42
3748;BME280;1889;50.058;8.688;2022-12-13T04:11:31;99789.98;;;1.30;54.56
3748;BME280;1889;50.058;8.688;2022-12-13T04:14:18;99789.41;;;1.20;54.65
3748;BME280;1889;50.058;8.688;2022-12-13T04:16:48;99795.51;;;1.25;54.59
3748;BME280;1889;50.058;8.688;2022-12-13T04:19:17;99793.17;;;1.43;54.10
3748;BME280;1889;50.058;8.688;2022-12-13T04:21:45;99789.28;;;1.43;54.18
3748;BME280;1889;50.058;8.688;2022-12-13T04:24:15;99789.31;;;1.44;54.25
3748;BME280;1889;50.058;8.688;2022-12-13T04:26:44;99797.97;;;1.45;54.21
3748;BME280;1889;50.058;8.688;2022-12-13T04:29:13;99785.84;;;1.44;54.22
3748;BME280;1889;50.058;8.688;2022-12-13T04:31:42;99785.84;;;1.44;54.24
3748;BME280;1889;50.058;8.688;2022-12-13T04:34:11;99788.44;;;1.44;54.23
3748;BME280;1889;50.058;8.688;2022-12-13T04:36:40;99783.70;;;1.46;54.15
3748;BME280;1889;50.058;8.688;2022-12-13T04:39:08;99779.02;;;1.50;54.11
3748;BME280;1889;50.058;8.688;2022-12-13T04:41:38;99785.97;;;1.53;54.01
3748;BME280;1889;50.058;8.688;2022-12-13T04:44:09;99793.17;;;1.43;54.03
3748;BME280;1889;50.058;8.688;2022-12-13T04:46:38;99794.45;;;1.41;54.04
3748;BME280;1889;50.058;8.688;2022-12-13T04:49:07;99790.63;;;1.47;53.94
3748;BME280;1889;50.058;8.688;2022-12-13T04:51:36;99794.00;;;1.40;53.93
3748;BME280;1889;50.058;8.688;2022-12-13T04:54:04;99797.04;;;1.41;53.94
3748;BME280;1889;50.058;8.688;2022-12-13T04:56:34;99795.30;;;1.40;53.83
3748;BME280;1889;50.058;8.688;2022-12-13T04:59:03;99798.78;;;1.42;53.59
3748;BME280;1889;50.058;8.688;2022-12-13T05:01:33;99794.00;;;1.40;53.46
3748;BME280;1889;50.058;8.688;2022-12-13T05:04:02;99790.94;;;1.36;53.45
3748;BME280;1889;50.058;8.688;2022-12-13T05:06:32;99793.50;;;1.35;53.44
3748;BME280;1889;50.058;8.688;2022-12-13T05:09:01;99792.17;;;1.33;53.54
3748;BME280;1889;50.058;8.688;2022-12-13T05:11:29;99788.66;;;1.28;53.68
3748;BME280;1889;50.058;8.688;2022-12-13T05:13:58;99784.66;;;1.22;53.80
3748;BME280;1889;50.058;8.688;2022-12-13T05:16:27;99787.71;;;1.22;53.89
3748;BME280;1889;50.058;8.688;2022-12-13T05:18:56;99792.44;;;1.22;53.89
3748;BME280;1889;50.058;8.688;2022-12-13T05:21:25;99796.72;;;1.19;53.92
3748;BME280;1889;50.058;8.688;2022-12-13T05:23:55;99799.34;;;1.20;53.76
3748;BME280;1889;50.058;8.688;2022-12-13T05:26:23;99803.25;;;1.23;53.75
3748;BME280;1889;50.058;8.688;2022-12-13T05:28:54;99804.21;;;1.28;53.50
3748;BME280;1889;50.058;8.688;2022-12-13T05:31:24;99798.58;;;1.27;53.34
3748;BME280;1889;50.058;8.688;2022-12-13T05:33:53;99791.03;;;1.14;53.61
3748;BME280;1889;50.058;8.688;2022-12-13T05:36:22;99801.52;;;1.21;53.48
3748;BME280;1889;50.058;8.688;2022-12-13T05:38:52;99798.88;;;1.50;51.91
3748;BME280;1889;50.058;8.688;2022-12-13T05:41:22;99798.07;;;1.23;52.79
3748;BME280;1889;50.058;8.688;2022-12-13T05:43:51;99795.27;;;1.08;53.17
3748;BME280;1889;50.058;8.688;2022-12-13T05:46:20;99793.91;;;1.03;53.44
3748;BME280;1889;50.058;8.688;2022-12-13T05:48:49;99789.63;;;1.07;53.45
3748;BME280;1889;50.058;8.688;2022-12-13T05:51:18;99786.25;;;1.11;53.41
3748;BME280;1889;50.058;8.688;2022-12-13T05:53:47;99793.20;;;1.15;53.33
3748;BME280;1889;50.058;8.688;2022-12-13T05:56:15;99789.34;;;1.17;53.03
3748;BME280;1889;50.058;8.688;2022-12-13T05:58:44;99787.71;;;1.22;53.13
3748;BME280;1889;50.058;8.688;2022-12-13T06:01:14;99788.53;;;1.19;53.15
3748;BME280;1889;50.058;8.688;2022-12-13T06:03:45;99790.50;;;1.07;53.33
3748;BME280;1889;50.058;8.688;2022-12-13T06:06:13;99788.31;;;1.04;53.44
3748;BME280;1889;50.058;8.688;2022-12-13T06:08:44;99788.84;;;1.11;53.28
3748;BME280;1889;50.058;8.688;2022-12-13T06:11:12;99793.32;;;0.93;53.36
3748;BME280;1889;50.058;8.688;2022-12-13T06:13:42;99791.16;;;0.93;53.48
3748;BME280;1889;50.058;8.688;2022-12-13T06:16:12;99787.72;;;0.94;53.15
3748;BME280;1889;50.058;8.688;2022-12-13T06:18:41;99787.18;;;0.87;53.35
3748;BME280;1889;50.058;8.688;2022-12-13T06:21:10;99795.94;;;0.95;53.36
3748;BME280;1889;50.058;8.688;2022-12-13T06:23:39;99792.45;;;0.93;53.36
3748;BME280;1889;50.058;8.688;2022-12-13T06:26:08;99796.78;;;0.94;53.28
3748;BME280;1889;50.058;8.688;2022-12-13T06:28:37;99798.50;;;0.93;53.28
3748;BME280;1889;50.058;8.688;2022-12-13T06:31:06;99788.08;;;0.90;53.30
3748;BME280;1889;50.058;8.688;2022-12-13T06:33:35;99787.66;;;0.89;53.36
3748;BME280;1889;50.058;8.688;2022-12-13T06:36:06;99798.47;;;0.92;53.21
3748;BME280;1889;50.058;8.688;2022-12-13T06:38:35;99806.27;;;0.93;53.19
3748;BME280;1889;50.058;8.688;2022-12-13T06:41:13;99802.81;;;0.93;53.33
3748;BME280;1889;50.058;8.688;2022-12-13T06:43:44;99807.08;;;0.91;53.28
3748;BME280;1889;50.058;8.688;2022-12-13T06:46:14;99802.45;;;0.96;53.29
3748;BME280;1889;50.058;8.688;2022-12-13T06:48:43;99803.73;;;0.96;53.17
3748;BME280;1889;50.058;8.688;2022-12-13T06:51:13;99802.50;;;1.01;53.16
3748;BME280;1889;50.058;8.688;2022-12-13T06:53:42;99805.88;;;0.95;53.04
3748;BME280;1889;50.058;8.688;2022-12-13T06:56:12;99802.23;;;0.84;53.34
3748;BME280;1889;50.058;8.688;2022-12-13T06:58:42;99799.41;;;0.95;53.11
3748;BME280;1889;50.058;8.688;2022-12-13T07:01:14;99792.51;;;0.96;52.87
3748;BME280;1889;50.058;8.688;2022-12-13T07:03:43;99789.83;;;0.91;53.02
3748;BME280;1889;50.058;8.688;2022-12-13T07:06:20;99799.80;;;0.67;53.35
3748;BME280;1889;50.058;8.688;2022-12-13T07:08:52;99797.08;;;0.59;53.57
3748;BME280;1889;50.058;8.688;2022-12-13T07:11:27;99795.49;;;0.67;53.61
3748;BME280;1889;50.058;8.688;2022-12-13T07:13:56;99794.31;;;0.75;53.51
3748;BME280;1889;50.058;8.688;2022-12-13T07:16:26;99798.53;;;0.68;53.56
3748;BME280;1889;50.058;8.688;2022-12-13T07:18:57;99797.45;;;0.82;53.22
3748;BME280;1889;50.058;8.688;2022-12-13T07:21:27;99799.64;;;0.56;53.73
3748;BME280;1889;50.058;8.688;2022-12-13T07:23:56;99798.92;;;0.65;53.63
3748;BME280;1889;50.058;8.688;2022-12-13T07:26:25;99799.02;;;0.71;53.39
3748;BME280;1889;50.058;8.688;2022-12-13T07:28:54;99801.63;;;0.74;53.18
3748;BME280;1889;50.058;8.688;2022-12-13T07:31:24;99798.92;;;0.66;53.56
3748;BME280;1889;50.058;8.688;2022-12-13T07:33:53;99805.40;;;0.42;53.93
3748;BME280;1889;50.058;8.688;2022-12-13T07:36:22;99804.95;;;0.39;54.08
3748;BME280;1889;50.058;8.688;2022-12-13T07:38:53;99798.80;;;0.59;53.53
3748;BME280;1889;50.058;8.688;2022-12-13T07:41:22;99801.94;;;0.66;53.55
3748;BME280;1889;50.058;8.688;2022-12-13T07:43:52;99798.47;;;0.65;53.68
3748;BME280;1889;50.058;8.688;2022-12-13T07:46:21;99804.62;;;0.70;53.65
3748;BME280;1889;50.058;8.688;2022-12-13T07:48:50;99802.60;;;0.79;53.46
3748;BME280;1889;50.058;8.688;2022-12-13T07:51:18;99803.29;;;0.69;53.67
3748;BME280;1889;50.058;8.688;2022-12-13T07:53:47;99808.23;;;0.80;53.61
3748;BME280;1889;50.058;8.688;2022-12-13T07:56:16;99813.92;;;0.86;53.48
3748;BME280;1889;50.058;8.688;2022-12-13T07:58:45;99806.21;;;0.90;53.10
3748;BME280;1889;50.058;8.688;2022-12-13T08:01:14;99806.22;;;0.89;53.38
3748;BME280;1889;50.058;8.688;2022-12-13T08:03:42;99810.30;;;0.76;53.77
3748;BME280;1889;50.058;8.688;2022-12-13T08:06:13;99807.25;;;0.47;54.38
3748;BME280;1889;50.058;8.688;2022-12-13T08:08:42;99808.80;;;0.90;53.43
3748;BME280;1889;50.058;8.688;2022-12-13T08:11:12;99802.45;;;0.96;53.51
3748;BME280;1889;50.058;8.688;2022-12-13T08:13:43;99809.52;;;1.08;53.24
3748;BME280;1889;50.058;8.688;2022-12-13T08:16:12;99803.01;;;1.05;52.97
3748;BME280;1889;50.058;8.688;2022-12-13T08:18:44;99807.46;;;1.13;53.06
3748;BME280;1889;50.058;8.688;2022-12-13T08:21:15;99806.22;;;1.18;53.21
3748;BME280;1889;50.058;8.688;2022-12-13T08:23:43;99800.69;;;1.25;53.13
3748;BME280;1889;50.058;8.688;2022-12-13T08:26:12;99808.89;;;0.95;53.80
3748;BME280;1889;50.058;8.688;2022-12-13T08:28:41;99803.17;;;1.17;53.51
3748;BME280;1889;50.058;8.688;2022-12-13T08:31:11;99798.70;;;1.07;53.41
3748;BME280;1889;50.058;8.688;2022-12-13T08:33:40;99801.34;;;0.81;54.48
3748;BME280;1889;50.058;8.688;2022-12-13T08:36:12;99811.27;;;0.83;54.68
3748;BME280;1889;50.058;8.688;2022-12-13T08:38:44;99808.61;;;1.06;54.30
3748;BME280;1889;50.058;8.688;2022-12-13T08:41:13;99798.17;;;1.31;53.72
3748;BME280;1889;50.058;8.688;2022-12-13T08:43:42;99792.25;;;1.08;54.38
3748;BME280;1889;50.058;8.688;2022-12-13T08:46:11;99787.89;;;1.04;54.43
3748;BME280;1889;50.058;8.688;2022-12-13T08:48:41;99789.18;;;1.06;54.27
3748;BME280;1889;50.058;8.688;2022-12-13T08:51:11;99795.31;;;0.83;55.14
3748;BME280;1889;50.058;8.688;2022-12-13T08:53:42;99789.09;;;1.28;54.21
3748;BME280;1889;50.058;8.688;2022-12-13T08:56:11;99792.85;;;1.51;53.78
3748;BME280;1889;50.058;8.688;2022-12-13T08:58:40;99794.64;;;1.24;54.21
3748;BME280;1889;50.058;8.688;2022-12-13T09:01:09;99799.66;;;1.43;54.03
3748;BME280;1889;50.058;8.688;2022-12-13T09:03:39;99799.55;;;1.06;55.13
3748;BME280;1889;50.058;8.688;2022-12-13T09:06:09;99790.70;;;1.52;54.35
3748;BME280;1889;50.058;8.688;2022-12-13T09:08:39;99800.11;;;1.79;53.70
3748;BME280;1889;50.058;8.688;2022-12-13T09:11:09;99789.84;;;1.88;53.47
3748;BME280;1889;50.058;8.688;2022-12-13T09:13:41;99807.48;;;1.46;54.32
3748;BME280;1889;50.058;8.688;2022-12-13T09:16:17;99817.53;;;1.56;54.64
3748;BME280;1889;50.058;8.688;2022-12-13T09:18:48;99816.98;;;1.47;54.30
3748;BME280;1889;50.058;8.688;2022-12-13T09:21:18;99812.42;;;1.60;54.74
3748;BME280;1889;50.058;8.688;2022-12-13T09:23:47;99807.75;;;1.67;54.75
3748;BME280;1889;50.058;8.688;2022-12-13T09:26:16;99810.95;;;1.82;54.56
3748;BME280;1889;50.058;8.688;2022-12-13T09:28:45;99805.68;;;1.74;54.85
3748;BME280;1889;50.058;8.688;2022-12-13T09:31:18;99809.30;;;1.54;55.24
3748;BME280;1889;50.058;8.688;2022-12-13T09:33:45;99816.17;;;1.83;54.99
3748;BME280;1889;50.058;8.688;2022-12-13T09:36:17;99819.23;;;1.86;54.79
3748;BME280;1889;50.058;8.688;2022-12-13T09:38:46;99826.40;;;1.73;54.87
3748;BME280;1889;50.058;8.688;2022-12-13T09:41:32;99833.21;;;1.99;54.66
3748;BME280;1889;50.058;8.688;2022-12-13T09:44:02;99824.88;;;2.28;54.13
3748;BME280;1889;50.058;8.688;2022-12-13T09:49:06;99824.93;;;2.32;54.25
3748;BME280;1889;50.058;8.688;2022-12-13T09:51:34;99833.55;;;1.90;54.98
3748;BME280;1889;50.058;8.688;2022-12-13T09:54:03;99833.72;;;2.06;55.19
3748;BME280;1889;50.058;8.688;2022-12-13T09:56:32;99835.88;;;2.05;55.28
3748;BME280;1889;50.058;8.688;2022-12-13T09:59:01;99826.59;;;2.25;55.08
3748;BME280;1889;50.058;8.688;2022-12-13T10:01:30;99824.54;;;2.37;54.71
3748;BME280;1889;50.058;8.688;2022-12-13T10:04:00;99818.74;;;2.20;55.28
3748;BME280;1889;50.058;8.688;2022-12-13T10:06:29;99814.32;;;2.12;54.39
3748;BME280;1889;50.058;8.688;2022-12-13T10:09:00;99817.16;;;2.33;54.94
3748;BME280;1889;50.058;8.688;2022-12-13T10:11:29;99812.22;;;2.16;55.43
3748;BME280;1889;50.058;8.688;2022-12-13T10:14:01;99814.31;;;2.50;54.23
3748;BME280;1889;50.058;8.688;2022-12-13T10:16:51;99804.94;;;2.23;54.42
3748;BME280;1889;50.058;8.688;2022-12-13T10:19:31;99812.33;;;2.28;55.21
3748;BME280;1889;50.058;8.688;2022-12-13T10:21:57;99806.73;;;2.75;54.10
3748;BME280;1889;50.058;8.688;2022-12-13T10:24:54;99804.20;;;2.85;53.82
3748;BME280;1889;50.058;8.688;2022-12-13T10:27:10;99808.69;;;2.51;54.60
3748;BME280;1889;50.058;8.688;2022-12-13T10:33:20;99807.28;;;2.92;53.98
3748;BME280;1889;50.058;8.688;2022-12-13T10:37:50;99802.78;;;2.67;54.32
3748;BME280;1889;50.058;8.688;2022-12-13T10:40:31;99794.41;;;3.06;53.23
3748;BME280;1889;50.058;8.688;2022-12-13T10:43:29;99787.31;;;2.85;53.40
3748;BME280;1889;50.058;8.688;2022-12-13T10:45:39;99785.59;;;2.86;52.50
3748;BME280;1889;50.058;8.688;2022-12-13T10:48:20;99771.66;;;2.75;53.47
3748;BME280;1889;50.058;8.688;2022-12-13T10:50:59;99785.06;;;2.73;53.58
3748;BME280;1889;50.058;8.688;2022-12-13T10:53:18;99784.36;;;2.41;54.08
3748;BME280;1889;50.058;8.688;2022-12-13T10:55:52;99792.35;;;1.81;55.05
3748;BME280;1889;50.058;8.688;2022-12-13T10:58:19;99777.46;;;2.43;54.50
3748;BME280;1889;50.058;8.688;2022-12-13T11:00:48;99768.56;;;2.66;53.78
3748;BME280;1889;50.058;8.688;2022-12-13T11:03:31;99770.95;;;2.42;54.29
3748;BME280;1889;50.058;8.688;2022-12-13T11:06:06;99763.30;;;2.60;54.16
3748;BME280;1889;50.058;8.688;2022-12-13T11:08:35;99772.77;;;1.69;55.27
3748;BME280;1889;50.058;8.688;2022-12-13T11:11:05;99765.03;;;1.73;56.62
3748;BME280;1889;50.058;8.688;2022-12-13T11:13:44;99762.64;;;1.53;57.26
3748;BME280;1889;50.058;8.688;2022-12-13T11:16:26;99765.63;;;1.51;57.21
3748;BME280;1889;50.058;8.688;2022-12-13T11:19:04;99751.26;;;2.20;55.44
3748;BME280;1889;50.058;8.688;2022-12-13T11:21:35;99745.62;;;2.19;55.13
3748;BME280;1889;50.058;8.688;2022-12-13T11:24:06;99742.28;;;2.31;55.20
3748;BME280;1889;50.058;8.688;2022-12-13T11:26:38;99738.85;;;2.89;54.69
3748;BME280;1889;50.058;8.688;2022-12-13T11:29:27;99735.44;;;3.00;53.76
3748;BME280;1889;50.058;8.688;2022-12-13T11:32:07;99728.19;;;3.18;53.43
3748;BME280;1889;50.058;8.688;2022-12-13T11:34:44;99728.80;;;3.54;52.75
3748;BME280;1889;50.058;8.688;2022-12-13T11:37:27;99723.67;;;2.84;53.08
3748;BME280;1889;50.058;8.688;2022-12-13T11:39:59;99722.86;;;2.95;54.13
3748;BME280;1889;50.058;8.688;2022-12-13T11:42:40;99723.90;;;3.26;52.82
3748;BME280;1889;50.058;8.688;2022-12-13T11:45:18;99717.97;;;3.55;52.96
3748;BME280;1889;50.058;8.688;2022-12-13T11:50:38;99717.63;;;3.86;51.68
3748;BME280;1889;50.058;8.688;2022-12-13T11:53:25;99719.42;;;4.05;51.55
3748;BME280;1889;50.058;8.688;2022-12-13T11:56:18;99724.63;;;4.11;51.27
3748;BME280;1889;50.058;8.688;2022-12-13T11:58:57;99714.19;;;4.06;51.14
3748;BME280;1889;50.058;8.688;2022-12-13T12:01:44;99706.15;;;3.24;52.04
3748;BME280;1889;50.058;8.688;2022-12-13T12:04:33;99704.20;;;3.98;51.49
3748;BME280;1889;50.058;8.688;2022-12-13T12:08:03;99695.52;;;3.81;51.74
3748;BME280;1889;50.058;8.688;2022-12-13T12:10:30;99698.12;;;3.92;51.86
3748;BME280;1889;50.058;8.688;2022-12-13T12:12:23;99697.13;;;3.50;51.18
3748;BME280;1889;50.058;8.688;2022-12-13T12:15:07;99697.03;;;3.26;52.73
3748;BME280;1889;50.058;8.688;2022-12-13T12:17:35;99697.64;;;3.65;52.40
3748;BME280;1889;50.058;8.688;2022-12-13T12:20:09;99692.38;;;3.53;52.41
3748;BME280;1889;50.058;8.688;2022-12-13T12:22:39;99684.66;;;3.78;51.97
3748;BME280;1889;50.058;8.688;2022-12-13T12:25:30;99685.84;;;3.45;51.90
3748;BME280;1889;50.058;8.688;2022-12-13T12:28:30;99686.95;;;2.99;52.74
3748;BME280;1889;50.058;8.688;2022-12-13T12:33:39;99675.47;;;3.57;52.24
3748;BME280;1889;50.058;8.688;2022-12-13T12:36:11;99672.77;;;3.22;52.62
3748;BME280;1889;50.058;8.688;2022-12-13T12:39:04;99673.93;;;2.96;53.68
3748;BME280;1889;50.058;8.688;2022-12-13T12:44:25;99668.30;;;2.97;53.55
3748;BME280;1889;50.058;8.688;2022-12-13T12:47:05;99658.39;;;3.10;53.63
3748;BME280;1889;50.058;8.688;2022-12-13T12:49:45;99665.46;;;3.38;53.19
3748;BME280;1889;50.058;8.688;2022-12-13T12:55:10;99663.28;;;3.41;53.52
3748;BME280;1889;50.058;8.688;2022-12-13T13:00:23;99645.92;;;3.34;53.43
3748;BME280;1889;50.058;8.688;2022-12-13T13:05:43;99646.45;;;3.56;52.99
3748;BME280;1889;50.058;8.688;2022-12-13T13:08:27;99640.38;;;3.62;53.20
3748;BME280;1889;50.058;8.688;2022-12-13T13:10:57;99650.33;;;3.58;53.35
3748;BME280;1889;50.058;8.688;2022-12-13T13:13:34;99659.45;;;3.65;52.84
3748;BME280;1889;50.058;8.688;2022-12-13T13:16:04;99646.04;;;3.70;53.30
3748;BME280;1889;50.058;8.688;2022-12-13T13:18:53;99643.91;;;3.96;52.93
3748;BME280;1889;50.058;8.688;2022-12-13T13:21:48;99648.70;;;4.20;52.33
3748;BME280;1889;50.058;8.688;2022-12-13T13:26:51;99652.58;;;4.31;52.03
3748;BME280;1889;50.058;8.688;2022-12-13T13:29:30;99646.08;;;4.10;52.52
3748;BME280;1889;50.058;8.688;2022-12-13T13:34:46;99650.83;;;4.59;51.84
3748;BME280;1889;50.058;8.688;2022-12-13T13:40:00;99656.93;;;4.17;52.51
3748;BME280;1889;50.058;8.688;2022-12-13T13:42:29;99649.54;;;4.30;52.01
3748;BME280;1889;50.058;8.688;2022-12-13T13:45:17;99638.27;;;4.45;52.31
3748;BME280;1889;50.058;8.688;2022-12-13T13:47:34;99648.69;;;4.43;52.35
3748;BME280;1889;50.058;8.688;2022-12-13T13:50:17;99655.15;;;3.76;52.02
3748;BME280;1889;50.058;8.688;2022-12-13T13:53:05;99648.25;;;4.09;52.53
3748;BME280;1889;50.058;8.688;2022-12-13T13:55:48;99637.81;;;4.50;51.83
3748;BME280;1889;50.058;8.688;2022-12-13T13:58:26;99631.75;;;4.43;52.27
3748;BME280;1889;50.058;8.688;2022-12-13T14:10:05;99641.30;;;4.31;52.13
3748;BME280;1889;50.058;8.688;2022-12-13T14:15:57;99635.19;;;4.68;51.29
3748;BME280;1889;50.058;8.688;2022-12-13T14:18:44;99641.30;;;4.43;51.76
3748;BME280;1889;50.058;8.688;2022-12-13T14:24:15;99644.77;;;4.16;51.66
3748;BME280;1889;50.058;8.688;2022-12-13T14:26:56;99654.30;;;4.55;51.54
3748;BME280;1889;50.058;8.688;2022-12-13T14:29:36;99651.30;;;4.04;52.20
3748;BME280;1889;50.058;8.688;2022-12-13T14:31:56;99642.61;;;4.35;51.94
3748;BME280;1889;50.058;8.688;2022-12-13T14:34:27;99638.68;;;4.49;51.84
3748;BME280;1889;50.058;8.688;2022-12-13T14:36:59;99643.90;;;4.41;51.97
3748;BME280;1889;50.058;8.688;2022-12-13T14:39:30;99637.81;;;4.50;52.04
3748;BME280;1889;50.058;8.688;2022-12-13T14:42:13;99642.17;;;4.42;52.13
3748;BME280;1889;50.058;8.688;2022-12-13T14:44:33;99636.52;;;4.50;52.13
3748;BME280;1889;50.058;8.688;2022-12-13T14:47:04;99631.31;;;4.53;52.07
3748;BME280;1889;50.058;8.688;2022-12-13T14:49:38;99623.94;;;4.45;52.30
3748;BME280;1889;50.058;8.688;2022-12-13T14:52:22;99624.38;;;4.43;52.13
3748;BME280;1889;50.058;8.688;2022-12-13T14:54:58;99628.28;;;4.46;52.14
3748;BME280;1889;50.058;8.688;2022-12-13T14:57:30;99626.95;;;4.61;51.80
3748;BME280;1889;50.058;8.688;2022-12-13T15:00:18;99630.86;;;4.58;51.85
3748;BME280;1889;50.058;8.688;2022-12-13T15:02:32;99631.30;;;4.60;51.87